Costa Adriatica — IFQQ — position and weather

sailwx.info

Track history (hours):
 
Tides and Currents Weather Stations Pressure Air Temp Water Temp Dewpoint Dewpoint Depression Visibility Wind Speed Wind Dir Waves Ship Positions

Costa Adriatica

Last reported at 2017-Sep-18 10:07 UTC. Time now 2017-Sep-20 00:35 UTC.
Position N 45°35' E 012°52'.

Length 28 m.

Type: Passenger vessel. MMSI: 247194400.

Date/timePositionNaut miles runAvg speedWind from/ knotsBaromVisibWave heightAir tempDewpointWater temp
2017-Sep-18 10:07N 45°35' E 012°52'111.5
2017-Sep-18 10:00N 45°35' E 012°54'  
2017-Sep-13 16:26N 45°38' E 012°59'512.6
2017-Sep-13 16:00N 45°34' E 012°53'815.1
2017-Sep-13 15:30N 45°30' E 012°44'715.0
2017-Sep-13 15:01N 45°27' E 012°34'713.2
2017-Sep-13 14:30N 45°26' E 012°25'3 5.2
2017-Sep-13 14:00N 45°26' E 012°21'0 0.0
2017-Sep-13 13:30N 45°26' E 012°21'0 0.0
2017-Sep-13 13:00N 45°26' E 012°21'0 0.0
2017-Sep-13 12:30N 45°26' E 012°21'0 0.0
2017-Sep-13 12:00N 45°26' E 012°21'0 0.0
2017-Sep-13 11:30N 45°26' E 012°21'0 0.0
2017-Sep-13 11:00N 45°26' E 012°21'0 0.0
2017-Sep-13 10:30N 45°26' E 012°21'0 0.0
2017-Sep-13 10:00N 45°26' E 012°21'0 0.0
2017-Sep-13 09:30N 45°26' E 012°21'0 0.0
2017-Sep-13 09:00N 45°26' E 012°21'2 4.4
2017-Sep-13 08:30N 45°26' E 012°24'713.8
2017-Sep-13 08:00N 45°27' E 012°34'816.3
2017-Sep-13 07:30N 45°30' E 012°44'816.2
2017-Sep-13 07:01N 45°34' E 012°54'5 3.3
2017-Sep-13 05:26N 45°38' E 012°60'3 6.3
2017-Sep-13 05:00N 45°36' E 012°57'  
2017-Sep-09 17:46N 45°35' E 012°52'513.5
2017-Sep-09 17:25N 45°32' E 012°47'1515.7
2017-Sep-09 16:28N 45°25' E 012°28'3 3.2
2017-Sep-09 15:40N 45°28' E 012°27'1 6.8
2017-Sep-09 15:30N 45°27' E 012°25'3 5.7
2017-Sep-09 15:00N 45°27' E 012°21'0 0.1
2017-Sep-09 14:30N 45°27' E 012°21'0 0.0
2017-Sep-09 14:00N 45°27' E 012°21'0 0.0
2017-Sep-09 13:30N 45°27' E 012°21'0 0.0
2017-Sep-09 13:00N 45°27' E 012°21'1 2.8
2017-Sep-09 12:30N 45°26' E 012°21'0 0.0
2017-Sep-09 12:00N 45°26' E 012°21'0 0.0
2017-Sep-09 11:30N 45°26' E 012°21'0 0.0
2017-Sep-09 11:00N 45°26' E 012°21'0 0.0
2017-Sep-09 10:30N 45°26' E 012°21'0 0.0
2017-Sep-09 10:00N 45°26' E 012°21'0 0.0
2017-Sep-09 09:30N 45°26' E 012°21'0 0.0
2017-Sep-09 09:00N 45°26' E 012°21'0 0.0
2017-Sep-09 08:30N 45°26' E 012°21'0 0.2
2017-Sep-09 08:00N 45°26' E 012°21'4 2.5
2017-Sep-09 06:29N 45°28' E 012°26'1511.1
2017-Sep-09 05:09N 45°31' E 012°46'216.9
2017-Sep-09 05:00N 45°33' E 012°49'3 0.2
2017-Sep-08 11:21N 45°35' E 012°52'514.3
2017-Sep-08 11:01N 45°37' E 012°59'  
Track history (hours):
 
Tides and Currents Weather Stations Pressure Air Temp Water Temp Dewpoint Dewpoint Depression Visibility Wind Speed Wind Dir Waves Ship Positions

Costa Adriatica

Last reported at 2017-Sep-18 10:07 UTC. Time now 2017-Sep-20 00:35 UTC.
Position N 45°35' E 012°52'.

Length 28 m.

Type: Passenger vessel. MMSI: 247194400.

Date/timePositionNaut miles runAvg speedWind from/ knotsBaromVisibWave heightAir tempDewpointWater temp
2017-Sep-18 10:07N 45°35' E 012°52'111.5
2017-Sep-18 10:00N 45°35' E 012°54'  
2017-Sep-13 16:26N 45°38' E 012°59'512.6
2017-Sep-13 16:00N 45°34' E 012°53'815.1
2017-Sep-13 15:30N 45°30' E 012°44'715.0
2017-Sep-13 15:01N 45°27' E 012°34'713.2
2017-Sep-13 14:30N 45°26' E 012°25'3 5.2
2017-Sep-13 14:00N 45°26' E 012°21'0 0.0
2017-Sep-13 13:30N 45°26' E 012°21'0 0.0
2017-Sep-13 13:00N 45°26' E 012°21'0 0.0
2017-Sep-13 12:30N 45°26' E 012°21'0 0.0
2017-Sep-13 12:00N 45°26' E 012°21'0 0.0
2017-Sep-13 11:30N 45°26' E 012°21'0 0.0
2017-Sep-13 11:00N 45°26' E 012°21'0 0.0
2017-Sep-13 10:30N 45°26' E 012°21'0 0.0
2017-Sep-13 10:00N 45°26' E 012°21'0 0.0
2017-Sep-13 09:30N 45°26' E 012°21'0 0.0
2017-Sep-13 09:00N 45°26' E 012°21'2 4.4
2017-Sep-13 08:30N 45°26' E 012°24'713.8
2017-Sep-13 08:00N 45°27' E 012°34'816.3
2017-Sep-13 07:30N 45°30' E 012°44'816.2
2017-Sep-13 07:01N 45°34' E 012°54'5 3.3
2017-Sep-13 05:26N 45°38' E 012°60'3 6.3
2017-Sep-13 05:00N 45°36' E 012°57'  
2017-Sep-09 17:46N 45°35' E 012°52'513.5
2017-Sep-09 17:25N 45°32' E 012°47'1515.7
2017-Sep-09 16:28N 45°25' E 012°28'3 3.2
2017-Sep-09 15:40N 45°28' E 012°27'1 6.8
2017-Sep-09 15:30N 45°27' E 012°25'3 5.7
2017-Sep-09 15:00N 45°27' E 012°21'0 0.1
2017-Sep-09 14:30N 45°27' E 012°21'0 0.0
2017-Sep-09 14:00N 45°27' E 012°21'0 0.0
2017-Sep-09 13:30N 45°27' E 012°21'0 0.0
2017-Sep-09 13:00N 45°27' E 012°21'1 2.8
2017-Sep-09 12:30N 45°26' E 012°21'0 0.0
2017-Sep-09 12:00N 45°26' E 012°21'0 0.0
2017-Sep-09 11:30N 45°26' E 012°21'0 0.0
2017-Sep-09 11:00N 45°26' E 012°21'0 0.0
2017-Sep-09 10:30N 45°26' E 012°21'0 0.0
2017-Sep-09 10:00N 45°26' E 012°21'0 0.0
2017-Sep-09 09:30N 45°26' E 012°21'0 0.0
2017-Sep-09 09:00N 45°26' E 012°21'0 0.0
2017-Sep-09 08:30N 45°26' E 012°21'0 0.2
2017-Sep-09 08:00N 45°26' E 012°21'4 2.5
2017-Sep-09 06:29N 45°28' E 012°26'1511.1
2017-Sep-09 05:09N 45°31' E 012°46'216.9
2017-Sep-09 05:00N 45°33' E 012°49'3 0.2
2017-Sep-08 11:21N 45°35' E 012°52'514.3
2017-Sep-08 11:01N 45°37' E 012°59'  

Dump ship's entire track history